Terminal Aerodrome Forecast
Issued by NWS

Home | Current Version | Previous Version | Graphics & Text | Print | Product List | Glossary On
Versions: 1 2 3 4 5 6 7 8 9 10 11 12 13 14 15
000
FTUS43 KIWX 250500 RRA
TAFSBN
TAF
KSBN 250552Z 2506/2606 18013KT P6SM BKN100 WS020/21045KT
     FM251000 19016G23KT P6SM VCSH BKN025
     FM251400 21023G30KT P6SM BKN035=

USA.gov is the U.S. government's official web portal to all federal, state and local government web resources and services.